createdAt,value
2018-09-28T00:01:42.096Z,12.80
2018-09-28T00:04:10.430Z,12.80
2018-09-28T00:06:38.753Z,12.80
2018-09-28T00:09:08.903Z,12.80
2018-09-28T00:11:37.232Z,12.80
2018-09-28T00:14:05.599Z,12.80
2018-09-28T00:16:34.270Z,12.80
2018-09-28T00:19:02.790Z,12.70
2018-09-28T00:21:31.569Z,12.80
2018-09-28T00:24:00.112Z,12.80
2018-09-28T00:26:28.512Z,12.60
2018-09-28T00:28:57.144Z,12.60
2018-09-28T00:31:25.834Z,12.40
2018-09-28T00:33:54.441Z,12.20
2018-09-28T00:36:22.764Z,12.00
2018-09-28T00:38:51.095Z,11.90
2018-09-28T00:41:19.387Z,11.80
2018-09-28T00:43:47.687Z,11.70
2018-09-28T00:46:15.992Z,11.70
2018-09-28T00:48:44.348Z,11.90
2018-09-28T00:51:12.679Z,12.10
2018-09-28T00:53:41.016Z,12.10
2018-09-28T00:56:09.370Z,12.20
2018-09-28T00:58:37.673Z,12.20
2018-09-28T01:01:06.019Z,12.30
2018-09-28T01:03:34.709Z,12.30
2018-09-28T01:06:03.025Z,12.30
2018-09-28T01:08:31.336Z,12.40
2018-09-28T01:10:59.630Z,12.40
2018-09-28T01:13:27.953Z,12.40
2018-09-28T01:15:56.295Z,12.40
2018-09-28T01:18:24.643Z,12.40
2018-09-28T01:20:53.293Z,12.40
2018-09-28T01:23:21.636Z,12.50
2018-09-28T01:25:50.286Z,12.50
2018-09-28T01:28:18.611Z,12.50
2018-09-28T01:30:46.969Z,12.50
2018-09-28T01:33:15.320Z,12.40
2018-09-28T01:35:43.632Z,12.40
2018-09-28T01:38:11.939Z,12.40
2018-09-28T01:40:40.298Z,12.30
2018-09-28T01:43:08.635Z,12.40
2018-09-28T01:45:36.946Z,12.30
2018-09-28T01:48:05.369Z,12.30
2018-09-28T01:50:33.714Z,12.30
2018-09-28T01:53:02.056Z,12.30
2018-09-28T01:55:30.720Z,12.30
2018-09-28T01:57:58.989Z,12.20
2018-09-28T02:00:27.404Z,12.20
2018-09-28T02:02:55.701Z,12.10
2018-09-28T02:05:24.036Z,12.20
2018-09-28T02:07:52.446Z,12.10
2018-09-28T02:10:21.076Z,12.20
2018-09-28T02:12:49.412Z,12.20
2018-09-28T02:15:17.944Z,12.20
2018-09-28T02:17:46.303Z,12.20
2018-09-28T02:20:14.629Z,12.20
2018-09-28T02:22:42.989Z,12.20
2018-09-28T02:25:11.914Z,12.20
2018-09-28T02:27:40.641Z,12.20
2018-09-28T02:30:09.012Z,12.00
2018-09-28T02:32:37.396Z,11.90
2018-09-28T02:35:06.297Z,11.80
2018-09-28T02:37:34.969Z,11.70
2018-09-28T02:40:03.400Z,11.70
2018-09-28T02:42:32.001Z,11.70
2018-09-28T02:45:00.834Z,11.80
2018-09-28T02:47:29.185Z,11.90
2018-09-28T02:49:57.562Z,11.90
2018-09-28T02:52:25.883Z,11.90
2018-09-28T02:54:54.277Z,11.80
2018-09-28T02:57:23.332Z,11.90
2018-09-28T02:59:52.026Z,11.90
2018-09-28T03:02:20.723Z,11.80
2018-09-28T03:04:49.099Z,11.80
2018-09-28T03:07:17.786Z,11.80
2018-09-28T03:09:46.144Z,11.90
2018-09-28T03:12:14.485Z,12.00
2018-09-28T03:14:42.866Z,12.00
2018-09-28T03:17:11.636Z,12.00
2018-09-28T03:19:40.380Z,11.90
2018-09-28T03:22:08.760Z,11.90
2018-09-28T03:24:37.169Z,11.90
2018-09-28T03:27:05.516Z,11.80
2018-09-28T03:29:33.881Z,11.80
2018-09-28T03:32:02.215Z,11.70
2018-09-28T03:34:30.547Z,11.40
2018-09-28T03:36:58.912Z,11.10
2018-09-28T03:39:27.691Z,11.20
2018-09-28T03:41:56.066Z,11.20
2018-09-28T03:44:24.742Z,11.30
2018-09-28T03:46:53.530Z,11.40
2018-09-28T03:49:21.819Z,11.40
2018-09-28T03:51:50.222Z,11.40
2018-09-28T03:54:18.600Z,11.30
2018-09-28T03:56:47.226Z,11.30
2018-09-28T03:59:15.659Z,11.30
2018-09-28T04:01:44.241Z,11.20
2018-09-28T04:04:12.597Z,11.20
2018-09-28T04:06:41.219Z,11.10
2018-09-28T04:09:10.775Z,11.20
2018-09-28T04:11:39.133Z,11.20
2018-09-28T04:14:07.796Z,11.20
2018-09-28T04:16:36.480Z,11.20
2018-09-28T04:19:04.952Z,11.20
2018-09-28T04:21:33.286Z,11.20
2018-09-28T04:24:01.663Z,11.20
2018-09-28T04:26:29.998Z,11.20
2018-09-28T04:28:58.480Z,11.30
2018-09-28T04:31:26.823Z,11.30
2018-09-28T04:33:55.532Z,11.30
2018-09-28T04:36:23.866Z,11.30
2018-09-28T04:38:52.189Z,11.10
2018-09-28T04:41:20.518Z,11.20
2018-09-28T04:43:48.913Z,11.10
2018-09-28T04:46:17.225Z,11.00
2018-09-28T04:48:45.634Z,10.90
2018-09-28T04:51:13.982Z,10.50
2018-09-28T04:53:42.346Z,10.40
2018-09-28T04:56:10.716Z,10.40
2018-09-28T04:58:39.053Z,10.30
2018-09-28T05:01:07.393Z,10.30
2018-09-28T05:03:36.080Z,10.30
2018-09-28T05:06:04.438Z,10.40
2018-09-28T05:08:33.113Z,10.60
2018-09-28T05:11:01.488Z,10.50
2018-09-28T05:13:30.249Z,10.40
2018-09-28T05:15:58.709Z,10.50
2018-09-28T05:18:27.804Z,10.60
2018-09-28T05:20:56.801Z,10.60
2018-09-28T05:23:25.127Z,10.70
2018-09-28T05:25:53.458Z,10.70
2018-09-28T05:28:22.173Z,10.80
2018-09-28T05:30:53.967Z,10.80
2018-09-28T05:33:19.165Z,10.80
2018-09-28T05:35:47.540Z,10.90
2018-09-28T05:38:15.849Z,10.90
2018-09-28T05:40:44.190Z,10.90
2018-09-28T05:43:12.565Z,10.90
2018-09-28T05:45:40.926Z,10.70
2018-09-28T05:48:09.309Z,10.50
2018-09-28T05:50:38.293Z,10.40
2018-09-28T05:53:06.968Z,10.20
2018-09-28T05:55:35.712Z,10.30
2018-09-28T05:58:09.358Z,10.40
2018-09-28T06:00:43.023Z,10.40
2018-09-28T06:03:14.579Z,10.30
2018-09-28T06:05:44.179Z,10.40
2018-09-28T06:08:13.150Z,10.50
2018-09-28T06:10:41.494Z,10.50
2018-09-28T06:13:09.878Z,10.50
2018-09-28T06:15:38.251Z,10.70
2018-09-28T06:18:06.574Z,10.90
2018-09-28T06:20:34.874Z,11.00
2018-09-28T06:23:03.636Z,11.00
2018-09-28T06:25:38.670Z,11.00
2018-09-28T06:28:07.063Z,10.90
2018-09-28T06:30:35.419Z,11.00
2018-09-28T06:33:04.139Z,11.10
2018-09-28T06:35:32.512Z,11.30
2018-09-28T06:38:00.902Z,11.30
2018-09-28T06:40:29.313Z,11.30
2018-09-28T06:42:57.975Z,11.40
2018-09-28T06:45:26.777Z,11.40
2018-09-28T06:47:55.193Z,11.50
2018-09-28T06:50:25.568Z,11.60
2018-09-28T06:52:53.978Z,11.60
2018-09-28T06:55:22.842Z,11.70
2018-09-28T06:57:51.158Z,11.80
2018-09-28T07:00:20.113Z,11.90
2018-09-28T07:02:48.939Z,12.10
2018-09-28T07:05:18.179Z,12.10
2018-09-28T07:07:46.670Z,12.10
2018-09-28T07:10:15.257Z,12.20
2018-09-28T07:12:44.654Z,12.30
2018-09-28T07:15:13.004Z,12.40
2018-09-28T07:17:41.713Z,12.30
2018-09-28T07:20:10.064Z,12.20
2018-09-28T07:22:38.434Z,12.20
2018-09-28T07:25:06.840Z,12.40
2018-09-28T07:27:35.256Z,12.40
2018-09-28T07:30:03.637Z,12.50
2018-09-28T07:32:32.450Z,12.50
2018-09-28T07:35:00.839Z,12.50
2018-09-28T07:37:29.239Z,12.70
2018-09-28T07:39:57.632Z,12.70
2018-09-28T07:42:25.998Z,12.70
2018-09-28T07:44:54.572Z,12.80
2018-09-28T07:47:22.904Z,12.90
2018-09-28T07:49:51.433Z,12.90
2018-09-28T07:52:19.802Z,13.00
2018-09-28T07:54:48.153Z,13.10
2018-09-28T07:57:16.755Z,13.20
2018-09-28T07:59:45.270Z,13.30
2018-09-28T08:02:13.595Z,13.30
2018-09-28T08:04:42.143Z,13.40
2018-09-28T08:07:10.497Z,13.50
2018-09-28T08:09:38.840Z,13.50
2018-09-28T08:12:07.238Z,13.60
2018-09-28T08:14:35.584Z,13.70
2018-09-28T08:17:03.911Z,13.70
2018-09-28T08:19:32.232Z,13.80
2018-09-28T08:22:00.940Z,13.80
2018-09-28T08:24:29.556Z,13.90
2018-09-28T08:26:58.190Z,14.10
2018-09-28T08:29:26.804Z,14.10
2018-09-28T08:31:55.168Z,14.30
2018-09-28T08:34:23.494Z,14.30
2018-09-28T08:36:51.857Z,14.30
2018-09-28T08:39:20.365Z,14.30
2018-09-28T08:41:48.706Z,14.50
2018-09-28T08:44:17.046Z,14.50
2018-09-28T08:46:46.105Z,14.60
2018-09-28T08:49:14.817Z,14.70
2018-09-28T08:51:43.476Z,14.90
2018-09-28T08:54:12.540Z,15.10
2018-09-28T08:56:41.304Z,15.20
2018-09-28T08:59:09.640Z,15.70
2018-09-28T09:01:37.934Z,15.70
2018-09-28T09:04:06.623Z,15.90
2018-09-28T09:06:35.310Z,15.90
2018-09-28T09:09:04.436Z,15.60
2018-09-28T09:11:33.054Z,16.00
2018-09-28T09:14:01.862Z,16.20
2018-09-28T09:16:30.545Z,16.10
2018-09-28T09:18:59.357Z,16.30
2018-09-28T09:21:27.674Z,16.10
2018-09-28T09:23:56.119Z,16.00
2018-09-28T09:26:25.656Z,16.20
2018-09-28T09:28:53.939Z,16.00
2018-09-28T09:31:22.625Z,15.90
2018-09-28T09:33:51.373Z,16.10
2018-09-28T09:36:19.705Z,16.50
2018-09-28T09:38:48.002Z,16.40
2018-09-28T09:41:16.669Z,16.30
2018-09-28T09:43:45.367Z,16.30
2018-09-28T09:46:14.328Z,16.40
2018-09-28T09:48:42.642Z,16.90
2018-09-28T09:51:11.742Z,16.60
2018-09-28T09:53:40.362Z,16.90
2018-09-28T09:56:09.223Z,16.60
2018-09-28T09:58:38.046Z,16.50
2018-09-28T10:01:07.293Z,16.80
2018-09-28T10:03:41.412Z,17.00
2018-09-28T10:06:10.714Z,17.20
2018-09-28T10:08:39.318Z,17.20
2018-09-28T10:11:07.579Z,17.10
2018-09-28T10:13:36.560Z,17.00
2018-09-28T10:16:04.842Z,17.00
2018-09-28T10:18:33.378Z,17.40
2018-09-28T10:21:02.279Z,17.20
2018-09-28T10:23:31.315Z,17.20
2018-09-28T10:25:59.591Z,18.10
2018-09-28T10:28:27.879Z,17.90
2018-09-28T10:30:56.200Z,17.80
2018-09-28T10:33:25.495Z,17.60
2018-09-28T10:35:54.067Z,17.90
2018-09-28T10:38:22.704Z,18.30
2018-09-28T10:40:51.315Z,18.10
2018-09-28T10:43:20.442Z,18.00
2018-09-28T10:45:49.295Z,18.30
2018-09-28T10:48:17.838Z,18.20
2018-09-28T10:50:46.213Z,18.60
2018-09-28T10:53:15.550Z,18.70
2018-09-28T10:55:44.446Z,18.50
2018-09-28T10:58:13.096Z,18.80
2018-09-28T11:00:41.400Z,18.70
2018-09-28T11:03:10.026Z,18.60
2018-09-28T11:05:39.004Z,18.80
2018-09-28T11:08:07.747Z,18.80
2018-09-28T11:10:36.499Z,18.90
2018-09-28T11:13:05.042Z,19.00
2018-09-28T11:15:34.358Z,19.10
2018-09-28T11:18:02.981Z,19.10
2018-09-28T11:20:31.990Z,19.30
2018-09-28T11:23:00.506Z,19.10
2018-09-28T11:25:29.214Z,19.10
2018-09-28T11:27:57.532Z,19.50
2018-09-28T11:30:25.982Z,19.30
2018-09-28T11:32:54.853Z,19.60
2018-09-28T11:35:24.489Z,19.70
2018-09-28T11:37:53.342Z,19.80
2018-09-28T11:40:21.971Z,19.70
2018-09-28T11:42:50.958Z,19.80
2018-09-28T11:45:19.611Z,20.00
2018-09-28T11:47:48.468Z,20.00
2018-09-28T11:50:17.357Z,20.20
2018-09-28T11:52:45.968Z,20.10
2018-09-28T11:55:14.559Z,20.10
2018-09-28T11:57:43.275Z,20.10
2018-09-28T12:00:11.633Z,20.30
2018-09-28T12:02:40.394Z,20.40
2018-09-28T12:05:09.430Z,20.50
2018-09-28T12:07:37.699Z,20.20
2018-09-28T12:10:06.706Z,20.50
2018-09-28T12:12:36.126Z,20.50
2018-09-28T12:15:05.224Z,20.60
2018-09-28T12:17:33.850Z,20.70
2018-09-28T12:20:02.442Z,20.80
2018-09-28T12:22:31.054Z,20.80
2018-09-28T12:24:59.387Z,20.70
2018-09-28T12:27:28.181Z,20.80
2018-09-28T12:29:57.193Z,20.90
2018-09-28T12:32:25.739Z,21.00
2018-09-28T12:34:56.235Z,20.80
2018-09-28T12:37:24.949Z,21.00
2018-09-28T12:39:54.420Z,21.00
2018-09-28T12:42:22.787Z,20.80
2018-09-28T12:44:51.985Z,21.00
2018-09-28T12:47:20.806Z,21.00
2018-09-28T12:49:49.483Z,21.00
2018-09-28T12:52:17.771Z,20.80
2018-09-28T12:54:46.360Z,21.00
2018-09-28T12:57:14.971Z,21.00
2018-09-28T12:59:43.644Z,21.00
2018-09-28T13:02:11.978Z,21.10
2018-09-28T13:04:40.968Z,21.10
2018-09-28T13:07:09.600Z,21.30
2018-09-28T13:09:37.988Z,21.20
2018-09-28T13:12:06.561Z,21.40
2018-09-28T13:14:34.916Z,21.70
2018-09-28T13:17:03.479Z,21.50
2018-09-28T13:19:32.195Z,21.30
2018-09-28T13:22:00.509Z,21.40
2018-09-28T13:24:28.851Z,21.30
2018-09-28T13:26:57.392Z,21.40
2018-09-28T13:29:26.204Z,21.30
2018-09-28T13:31:55.319Z,21.50
2018-09-28T13:34:24.604Z,21.40
2018-09-28T13:36:59.331Z,21.40
2018-09-28T13:39:27.627Z,21.40
2018-09-28T13:41:56.500Z,21.70
2018-09-28T13:44:24.995Z,21.80
2018-09-28T13:46:53.674Z,21.80
2018-09-28T13:49:22.608Z,21.80
2018-09-28T13:51:50.981Z,21.80
2018-09-28T13:54:19.996Z,21.80
2018-09-28T13:56:48.738Z,21.50
2018-09-28T13:59:17.733Z,21.60
2018-09-28T14:01:46.030Z,21.60
2018-09-28T14:04:14.630Z,21.70
2018-09-28T14:06:43.017Z,21.80
2018-09-28T14:09:11.498Z,21.70
2018-09-28T14:11:39.896Z,21.60
2018-09-28T14:14:08.586Z,21.70
2018-09-28T14:16:38.037Z,21.80
2018-09-28T14:19:07.076Z,21.80
2018-09-28T14:21:35.536Z,21.80
2018-09-28T14:24:03.906Z,21.60
2018-09-28T14:26:32.686Z,21.50
2018-09-28T14:29:00.912Z,21.60
2018-09-28T14:31:29.508Z,21.50
2018-09-28T14:33:58.481Z,21.50
2018-09-28T14:36:27.250Z,21.60
2018-09-28T14:38:55.953Z,21.60
2018-09-28T14:41:24.548Z,21.50
2018-09-28T14:43:53.495Z,21.50
2018-09-28T14:46:22.022Z,21.50
2018-09-28T14:48:50.619Z,21.40
2018-09-28T14:51:19.616Z,21.30
2018-09-28T14:53:48.399Z,21.30
2018-09-28T14:56:16.740Z,21.20
2018-09-28T14:58:45.525Z,21.10
2018-09-28T15:01:13.836Z,21.30
2018-09-28T15:03:42.369Z,21.20
2018-09-28T15:06:11.148Z,21.10
2018-09-28T15:08:39.565Z,21.20
2018-09-28T15:11:07.864Z,21.20
2018-09-28T15:13:36.212Z,21.00
2018-09-28T15:16:04.572Z,21.00
2018-09-28T15:18:33.354Z,21.00
2018-09-28T15:21:02.099Z,21.00
2018-09-28T15:23:30.816Z,20.90
2018-09-28T15:25:59.566Z,20.80
2018-09-28T15:28:27.896Z,20.60
2018-09-28T15:30:56.529Z,20.60
2018-09-28T15:33:24.863Z,20.70
2018-09-28T15:35:53.520Z,20.70
2018-09-28T15:38:21.894Z,20.70
2018-09-28T15:40:50.590Z,20.50
2018-09-28T15:43:18.863Z,20.60
2018-09-28T15:45:47.922Z,20.50
2018-09-28T15:48:16.217Z,20.40
2018-09-28T15:50:44.755Z,20.30
2018-09-28T15:53:14.058Z,20.30
2018-09-28T15:55:42.796Z,20.20
2018-09-28T15:58:11.893Z,20.10
2018-09-28T16:00:40.899Z,20.00
2018-09-28T16:03:09.848Z,19.90
2018-09-28T16:05:38.132Z,19.70
2018-09-28T16:08:06.761Z,19.60
2018-09-28T16:10:35.601Z,19.50
2018-09-28T16:13:04.250Z,19.60
2018-09-28T16:15:32.950Z,19.60
2018-09-28T16:18:01.765Z,19.40
2018-09-28T16:20:30.143Z,19.30
2018-09-28T16:22:58.448Z,19.20
2018-09-28T16:25:27.555Z,19.10
2018-09-28T16:27:55.993Z,19.10
2018-09-28T16:30:24.287Z,19.10
2018-09-28T16:32:52.979Z,19.00
2018-09-28T16:35:21.388Z,18.90
2018-09-28T16:37:49.771Z,18.90
2018-09-28T16:40:18.131Z,18.80
2018-09-28T16:42:46.800Z,18.80
2018-09-28T16:45:15.968Z,18.70
2018-09-28T16:47:44.972Z,18.60
2018-09-28T16:50:13.404Z,18.50
2018-09-28T16:52:41.842Z,18.50
2018-09-28T16:55:10.620Z,18.40
2018-09-28T16:57:39.127Z,18.40
2018-09-28T17:00:07.595Z,18.30
2018-09-28T17:02:35.961Z,18.20
2018-09-28T17:05:04.315Z,18.10
2018-09-28T17:07:32.976Z,18.00
2018-09-28T17:10:01.673Z,18.10
2018-09-28T17:12:30.649Z,18.00
2018-09-28T17:14:59.732Z,18.00
2018-09-28T17:17:28.964Z,18.00
2018-09-28T17:19:57.321Z,17.90
2018-09-28T17:22:25.643Z,17.90
2018-09-28T17:24:54.041Z,17.80
2018-09-28T17:27:22.453Z,17.80
2018-09-28T17:29:51.305Z,17.70
2018-09-28T17:32:19.986Z,17.70
2018-09-28T17:34:48.684Z,17.60
2018-09-28T17:37:17.313Z,17.60
2018-09-28T17:39:46.107Z,17.50
2018-09-28T17:42:14.465Z,17.40
2018-09-28T17:44:43.207Z,17.30
2018-09-28T17:47:11.688Z,17.30
2018-09-28T17:49:40.283Z,17.30
2018-09-28T17:52:08.689Z,17.20
2018-09-28T17:54:37.029Z,17.10
2018-09-28T17:57:05.311Z,17.10
2018-09-28T17:59:33.774Z,17.00
2018-09-28T18:02:02.070Z,16.80
2018-09-28T18:04:30.632Z,16.70
2018-09-28T18:06:59.029Z,16.70
2018-09-28T18:09:27.562Z,16.60
2018-09-28T18:11:56.116Z,16.50
2018-09-28T18:14:24.448Z,16.40
2018-09-28T18:16:53.076Z,16.20
2018-09-28T18:19:21.459Z,16.10
2018-09-28T18:21:50.630Z,16.00
2018-09-28T18:24:19.104Z,15.80
2018-09-28T18:26:48.201Z,15.80
2018-09-28T18:29:17.561Z,15.80
2018-09-28T18:31:46.200Z,15.60
2018-09-28T18:34:14.558Z,15.70
2018-09-28T18:36:43.447Z,15.60
2018-09-28T18:39:12.041Z,15.60
2018-09-28T18:41:40.457Z,15.50
2018-09-28T18:44:09.205Z,15.30
2018-09-28T18:46:37.596Z,15.30
2018-09-28T18:49:06.059Z,15.30
2018-09-28T18:51:34.839Z,15.20
2018-09-28T18:54:03.242Z,15.10
2018-09-28T18:56:31.599Z,15.10
2018-09-28T18:59:00.339Z,15.10
2018-09-28T19:01:28.719Z,15.00
2018-09-28T19:03:57.339Z,14.90
2018-09-28T19:06:25.742Z,14.90
2018-09-28T19:08:54.373Z,14.90
2018-09-28T19:11:22.739Z,14.90
2018-09-28T19:13:51.083Z,14.90
2018-09-28T19:16:20.583Z,14.90
2018-09-28T19:18:48.912Z,14.70
2018-09-28T19:21:17.652Z,14.80
2018-09-28T19:23:46.346Z,14.80
2018-09-28T19:26:14.792Z,14.70
2018-09-28T19:28:43.164Z,14.60
2018-09-28T19:31:11.499Z,14.60
2018-09-28T19:33:39.961Z,14.60
2018-09-28T19:36:08.758Z,14.70
2018-09-28T19:38:37.167Z,14.50
2018-09-28T19:41:05.661Z,14.40
2018-09-28T19:43:34.414Z,14.30
2018-09-28T19:46:02.960Z,14.40
2018-09-28T19:48:31.285Z,14.30
2018-09-28T19:50:59.980Z,14.20
2018-09-28T19:53:28.361Z,14.20
2018-09-28T19:55:57.107Z,14.20
2018-09-28T19:58:26.181Z,14.20
2018-09-28T20:00:54.916Z,14.10
2018-09-28T20:03:23.634Z,14.10
2018-09-28T20:05:52.360Z,14.10
2018-09-28T20:08:21.036Z,14.00
2018-09-28T20:10:49.373Z,14.00
2018-09-28T20:13:17.815Z,14.00
2018-09-28T20:15:46.615Z,14.10
2018-09-28T20:18:15.853Z,14.20
2018-09-28T20:20:44.212Z,14.10
2018-09-28T20:23:12.806Z,14.10
2018-09-28T20:25:41.133Z,14.10
2018-09-28T20:28:09.490Z,14.10
2018-09-28T20:30:38.430Z,14.20
2018-09-28T20:33:07.077Z,14.00
2018-09-28T20:35:35.502Z,14.00
2018-09-28T20:38:03.991Z,13.90
2018-09-28T20:40:32.371Z,13.90
2018-09-28T20:43:01.069Z,14.00
2018-09-28T20:45:29.468Z,13.80
2018-09-28T20:47:57.910Z,13.80
2018-09-28T20:50:26.512Z,13.70
2018-09-28T20:52:55.220Z,13.60
2018-09-28T20:55:23.709Z,13.60
2018-09-28T20:57:52.731Z,13.50
2018-09-28T21:00:21.071Z,13.60
2018-09-28T21:02:49.472Z,13.70
2018-09-28T21:05:17.904Z,13.60
2018-09-28T21:07:46.414Z,13.30
2018-09-28T21:10:14.779Z,13.50
2018-09-28T21:12:43.179Z,13.40
2018-09-28T21:15:12.009Z,13.50
2018-09-28T21:17:40.610Z,13.40
2018-09-28T21:20:08.971Z,13.30
2018-09-28T21:22:38.129Z,13.40
2018-09-28T21:25:06.537Z,13.30
2018-09-28T21:27:34.917Z,13.30
2018-09-28T21:30:03.620Z,13.30
2018-09-28T21:32:32.549Z,13.30
2018-09-28T21:35:01.228Z,13.30
2018-09-28T21:37:29.620Z,13.40
2018-09-28T21:39:58.219Z,13.50
2018-09-28T21:42:27.317Z,13.50
2018-09-28T21:44:56.201Z,13.50
2018-09-28T21:47:24.864Z,13.40
2018-09-28T21:49:53.592Z,13.50
2018-09-28T21:52:22.327Z,13.50
2018-09-28T21:54:50.660Z,13.50
2018-09-28T21:57:19.012Z,13.40
2018-09-28T21:59:47.381Z,13.50
2018-09-28T22:02:15.706Z,13.60
2018-09-28T22:04:44.016Z,13.60
2018-09-28T22:07:12.350Z,13.60
2018-09-28T22:09:41.109Z,13.60
2018-09-28T22:12:09.463Z,13.60
2018-09-28T22:14:38.207Z,13.50
2018-09-28T22:17:06.576Z,13.50
2018-09-28T22:19:35.388Z,13.50
2018-09-28T22:22:04.096Z,13.60
2018-09-28T22:24:33.520Z,13.60
2018-09-28T22:27:02.729Z,13.60
2018-09-28T22:29:31.479Z,13.50
2018-09-28T22:32:00.135Z,13.50
2018-09-28T22:34:28.700Z,13.50
2018-09-28T22:36:57.419Z,13.60
2018-09-28T22:39:25.731Z,13.50
2018-09-28T22:41:54.546Z,13.60
2018-09-28T22:44:23.131Z,13.60
2018-09-28T22:46:51.473Z,13.60
2018-09-28T22:49:19.793Z,13.60
2018-09-28T22:51:48.394Z,13.60
2018-09-28T22:54:16.929Z,13.60
2018-09-28T22:56:45.242Z,13.50
2018-09-28T22:59:13.808Z,13.40
2018-09-28T23:01:42.120Z,13.50
2018-09-28T23:04:10.464Z,13.50
2018-09-28T23:06:39.256Z,13.50
2018-09-28T23:09:08.596Z,13.40
2018-09-28T23:11:37.379Z,13.60
2018-09-28T23:14:06.114Z,13.60
2018-09-28T23:16:34.436Z,13.60
2018-09-28T23:19:03.236Z,13.60
2018-09-28T23:21:31.878Z,13.50
2018-09-28T23:24:00.193Z,13.50
2018-09-28T23:26:28.865Z,13.50
2018-09-28T23:28:57.442Z,13.50
2018-09-28T23:31:25.739Z,13.60
2018-09-28T23:33:54.542Z,13.60
2018-09-28T23:36:23.206Z,13.60
2018-09-28T23:38:51.543Z,13.60
2018-09-28T23:41:19.947Z,13.70
2018-09-28T23:43:48.652Z,13.60
2018-09-28T23:46:16.980Z,13.60
2018-09-28T23:48:45.628Z,13.60
2018-09-28T23:51:14.206Z,13.60
2018-09-28T23:53:42.537Z,13.60
2018-09-28T23:56:11.097Z,13.60
2018-09-28T23:58:39.705Z,13.50
